sensor_id;sensor_type;location;lat;lon;timestamp;temperature;humidity
52275;DHT22;38228;50.940;4.024;2024-03-08T00:01:10;5.90;99.90
52275;DHT22;38228;50.940;4.024;2024-03-08T00:03:35;5.90;99.90
52275;DHT22;38228;50.940;4.024;2024-03-08T00:06:01;5.90;99.90
52275;DHT22;38228;50.940;4.024;2024-03-08T00:08:27;5.80;99.90
52275;DHT22;38228;50.940;4.024;2024-03-08T00:10:55;5.80;99.90
52275;DHT22;38228;50.940;4.024;2024-03-08T00:13:21;5.70;99.90
52275;DHT22;38228;50.940;4.024;2024-03-08T00:15:47;5.50;99.90
52275;DHT22;38228;50.940;4.024;2024-03-08T00:18:12;5.50;99.90
52275;DHT22;38228;50.940;4.024;2024-03-08T00:20:38;5.40;99.90
52275;DHT22;38228;50.940;4.024;2024-03-08T00:23:04;5.40;99.90
52275;DHT22;38228;50.940;4.024;2024-03-08T00:25:30;5.40;99.90
52275;DHT22;38228;50.940;4.024;2024-03-08T00:27:56;5.30;99.90
52275;DHT22;38228;50.940;4.024;2024-03-08T00:30:22;5.30;99.90
52275;DHT22;38228;50.940;4.024;2024-03-08T00:32:49;5.40;99.90
52275;DHT22;38228;50.940;4.024;2024-03-08T00:35:15;5.40;99.90
52275;DHT22;38228;50.940;4.024;2024-03-08T00:37:41;5.40;99.90
52275;DHT22;38228;50.940;4.024;2024-03-08T00:40:12;5.50;99.90
52275;DHT22;38228;50.940;4.024;2024-03-08T00:42:38;5.50;99.90
52275;DHT22;38228;50.940;4.024;2024-03-08T00:45:05;5.50;99.90
52275;DHT22;38228;50.940;4.024;2024-03-08T00:47:31;5.40;99.90
52275;DHT22;38228;50.940;4.024;2024-03-08T00:49:57;5.40;99.90
52275;DHT22;38228;50.940;4.024;2024-03-08T00:52:23;5.30;99.90
52275;DHT22;38228;50.940;4.024;2024-03-08T00:54:52;5.30;99.90
52275;DHT22;38228;50.940;4.024;2024-03-08T00:57:17;5.40;99.90
52275;DHT22;38228;50.940;4.024;2024-03-08T00:59:43;5.40;99.90
52275;DHT22;38228;50.940;4.024;2024-03-08T01:02:09;5.30;99.90
52275;DHT22;38228;50.940;4.024;2024-03-08T01:04:36;5.30;99.90
52275;DHT22;38228;50.940;4.024;2024-03-08T01:07:02;5.30;99.90
52275;DHT22;38228;50.940;4.024;2024-03-08T01:09:28;5.20;99.90
52275;DHT22;38228;50.940;4.024;2024-03-08T01:11:54;5.20;99.90
52275;DHT22;38228;50.940;4.024;2024-03-08T01:14:21;5.20;99.90
52275;DHT22;38228;50.940;4.024;2024-03-08T01:16:57;5.20;99.90
52275;DHT22;38228;50.940;4.024;2024-03-08T01:19:22;5.20;99.90
52275;DHT22;38228;50.940;4.024;2024-03-08T01:21:49;5.20;99.90
52275;DHT22;38228;50.940;4.024;2024-03-08T01:24:14;5.20;99.90
52275;DHT22;38228;50.940;4.024;2024-03-08T01:26:40;5.20;99.90
52275;DHT22;38228;50.940;4.024;2024-03-08T01:29:06;5.10;99.90
52275;DHT22;38228;50.940;4.024;2024-03-08T01:31:32;5.10;99.90
52275;DHT22;38228;50.940;4.024;2024-03-08T01:34:00;5.10;99.90
52275;DHT22;38228;50.940;4.024;2024-03-08T01:36:26;5.10;99.90
52275;DHT22;38228;50.940;4.024;2024-03-08T01:38:52;5.10;99.90
52275;DHT22;38228;50.940;4.024;2024-03-08T01:41:18;5.00;99.90
52275;DHT22;38228;50.940;4.024;2024-03-08T01:43:45;4.90;99.90
52275;DHT22;38228;50.940;4.024;2024-03-08T01:46:13;4.90;99.90
52275;DHT22;38228;50.940;4.024;2024-03-08T01:48:42;5.00;99.90
52275;DHT22;38228;50.940;4.024;2024-03-08T01:51:08;5.00;99.90
52275;DHT22;38228;50.940;4.024;2024-03-08T01:53:34;5.10;99.90
52275;DHT22;38228;50.940;4.024;2024-03-08T01:56:01;4.90;99.90
52275;DHT22;38228;50.940;4.024;2024-03-08T01:58:29;4.90;99.90
52275;DHT22;38228;50.940;4.024;2024-03-08T02:00:56;4.90;99.90
52275;DHT22;38228;50.940;4.024;2024-03-08T02:03:22;4.90;99.90
52275;DHT22;38228;50.940;4.024;2024-03-08T02:05:49;5.00;99.90
52275;DHT22;38228;50.940;4.024;2024-03-08T02:08:15;5.00;99.90
52275;DHT22;38228;50.940;4.024;2024-03-08T02:10:41;5.00;99.90
52275;DHT22;38228;50.940;4.024;2024-03-08T02:13:07;5.00;99.90
52275;DHT22;38228;50.940;4.024;2024-03-08T02:15:59;4.90;99.90
52275;DHT22;38228;50.940;4.024;2024-03-08T02:18:26;4.80;99.90
52275;DHT22;38228;50.940;4.024;2024-03-08T02:20:55;4.70;99.90
52275;DHT22;38228;50.940;4.024;2024-03-08T02:23:22;4.70;99.90
52275;DHT22;38228;50.940;4.024;2024-03-08T02:25:48;4.70;99.90
52275;DHT22;38228;50.940;4.024;2024-03-08T02:28:14;4.70;99.90
52275;DHT22;38228;50.940;4.024;2024-03-08T02:30:40;4.70;99.90
52275;DHT22;38228;50.940;4.024;2024-03-08T02:33:07;4.70;99.90
52275;DHT22;38228;50.940;4.024;2024-03-08T02:35:35;4.60;99.90
52275;DHT22;38228;50.940;4.024;2024-03-08T02:38:02;4.50;99.90
52275;DHT22;38228;50.940;4.024;2024-03-08T02:40:29;4.50;99.90
52275;DHT22;38228;50.940;4.024;2024-03-08T02:42:55;4.60;99.90
52275;DHT22;38228;50.940;4.024;2024-03-08T02:45:20;4.60;99.90
52275;DHT22;38228;50.940;4.024;2024-03-08T02:47:46;4.50;99.90
52275;DHT22;38228;50.940;4.024;2024-03-08T02:50:14;4.60;99.90
52275;DHT22;38228;50.940;4.024;2024-03-08T02:52:44;4.50;99.90
52275;DHT22;38228;50.940;4.024;2024-03-08T02:55:12;4.50;99.90
52275;DHT22;38228;50.940;4.024;2024-03-08T02:57:40;4.40;99.90
52275;DHT22;38228;50.940;4.024;2024-03-08T03:00:07;4.40;99.90
52275;DHT22;38228;50.940;4.024;2024-03-08T03:02:35;4.30;99.90
52275;DHT22;38228;50.940;4.024;2024-03-08T03:05:01;4.30;99.90
52275;DHT22;38228;50.940;4.024;2024-03-08T03:07:35;4.40;99.90
52275;DHT22;38228;50.940;4.024;2024-03-08T03:10:01;4.40;99.90
52275;DHT22;38228;50.940;4.024;2024-03-08T03:12:28;4.30;99.90
52275;DHT22;38228;50.940;4.024;2024-03-08T03:14:54;4.30;99.90
52275;DHT22;38228;50.940;4.024;2024-03-08T03:17:19;4.30;99.90
52275;DHT22;38228;50.940;4.024;2024-03-08T03:19:46;4.30;99.90
52275;DHT22;38228;50.940;4.024;2024-03-08T03:22:12;4.30;99.90
52275;DHT22;38228;50.940;4.024;2024-03-08T03:24:38;4.40;99.90
52275;DHT22;38228;50.940;4.024;2024-03-08T03:27:04;4.30;99.90
52275;DHT22;38228;50.940;4.024;2024-03-08T03:29:43;4.30;99.90
52275;DHT22;38228;50.940;4.024;2024-03-08T03:32:13;4.30;99.90
52275;DHT22;38228;50.940;4.024;2024-03-08T03:34:39;4.30;99.90
52275;DHT22;38228;50.940;4.024;2024-03-08T03:37:05;4.30;99.90
52275;DHT22;38228;50.940;4.024;2024-03-08T03:39:32;4.20;99.90
52275;DHT22;38228;50.940;4.024;2024-03-08T03:42:00;4.20;99.90
52275;DHT22;38228;50.940;4.024;2024-03-08T03:44:28;4.20;99.90
52275;DHT22;38228;50.940;4.024;2024-03-08T03:46:53;4.20;99.90
52275;DHT22;38228;50.940;4.024;2024-03-08T03:49:20;4.10;99.90
52275;DHT22;38228;50.940;4.024;2024-03-08T03:51:46;4.20;99.90
52275;DHT22;38228;50.940;4.024;2024-03-08T03:54:12;4.20;99.90
52275;DHT22;38228;50.940;4.024;2024-03-08T03:56:38;4.20;99.90
52275;DHT22;38228;50.940;4.024;2024-03-08T03:59:05;4.20;99.90
52275;DHT22;38228;50.940;4.024;2024-03-08T04:01:32;4.10;99.90
52275;DHT22;38228;50.940;4.024;2024-03-08T04:03:58;4.00;99.90
52275;DHT22;38228;50.940;4.024;2024-03-08T04:06:24;4.10;99.90
52275;DHT22;38228;50.940;4.024;2024-03-08T04:08:50;4.00;99.90
52275;DHT22;38228;50.940;4.024;2024-03-08T04:11:16;4.00;99.90
52275;DHT22;38228;50.940;4.024;2024-03-08T04:13:43;4.10;99.90
52275;DHT22;38228;50.940;4.024;2024-03-08T04:16:08;4.10;99.90
52275;DHT22;38228;50.940;4.024;2024-03-08T04:18:36;4.10;99.90
52275;DHT22;38228;50.940;4.024;2024-03-08T04:21:04;4.00;99.90
52275;DHT22;38228;50.940;4.024;2024-03-08T04:23:32;4.10;99.90
52275;DHT22;38228;50.940;4.024;2024-03-08T04:26:00;4.00;99.90
52275;DHT22;38228;50.940;4.024;2024-03-08T04:28:26;4.10;99.90
52275;DHT22;38228;50.940;4.024;2024-03-08T04:30:51;4.10;99.90
52275;DHT22;38228;50.940;4.024;2024-03-08T04:33:17;4.00;99.90
52275;DHT22;38228;50.940;4.024;2024-03-08T04:35:43;3.90;99.90
52275;DHT22;38228;50.940;4.024;2024-03-08T04:38:11;3.90;99.90
52275;DHT22;38228;50.940;4.024;2024-03-08T04:40:36;4.00;99.90
52275;DHT22;38228;50.940;4.024;2024-03-08T04:43:02;4.00;99.90
52275;DHT22;38228;50.940;4.024;2024-03-08T04:45:28;3.90;99.90
52275;DHT22;38228;50.940;4.024;2024-03-08T04:47:54;3.90;99.90
52275;DHT22;38228;50.940;4.024;2024-03-08T04:50:19;3.90;99.90
52275;DHT22;38228;50.940;4.024;2024-03-08T04:52:45;4.00;99.90
52275;DHT22;38228;50.940;4.024;2024-03-08T04:55:11;4.00;99.90
52275;DHT22;38228;50.940;4.024;2024-03-08T04:57:37;4.00;99.90
52275;DHT22;38228;50.940;4.024;2024-03-08T05:00:03;4.00;99.90
52275;DHT22;38228;50.940;4.024;2024-03-08T05:02:36;4.00;99.90
52275;DHT22;38228;50.940;4.024;2024-03-08T05:05:05;4.00;99.90
52275;DHT22;38228;50.940;4.024;2024-03-08T05:07:32;4.00;99.90
52275;DHT22;38228;50.940;4.024;2024-03-08T05:10:01;3.90;99.90
52275;DHT22;38228;50.940;4.024;2024-03-08T05:12:27;3.80;99.90
52275;DHT22;38228;50.940;4.024;2024-03-08T05:14:53;3.80;99.90
52275;DHT22;38228;50.940;4.024;2024-03-08T05:17:19;3.80;99.90
52275;DHT22;38228;50.940;4.024;2024-03-08T05:19:45;3.80;99.90
52275;DHT22;38228;50.940;4.024;2024-03-08T05:22:11;3.80;99.90
52275;DHT22;38228;50.940;4.024;2024-03-08T05:24:36;3.80;99.90
52275;DHT22;38228;50.940;4.024;2024-03-08T05:27:02;3.70;99.90
52275;DHT22;38228;50.940;4.024;2024-03-08T05:29:29;3.70;99.90
52275;DHT22;38228;50.940;4.024;2024-03-08T05:31:55;3.70;99.90
52275;DHT22;38228;50.940;4.024;2024-03-08T05:34:22;3.80;99.90
52275;DHT22;38228;50.940;4.024;2024-03-08T05:36:50;3.80;99.90
52275;DHT22;38228;50.940;4.024;2024-03-08T05:39:17;3.80;99.90
52275;DHT22;38228;50.940;4.024;2024-03-08T05:41:43;3.80;99.90
52275;DHT22;38228;50.940;4.024;2024-03-08T05:44:10;3.80;99.90
52275;DHT22;38228;50.940;4.024;2024-03-08T05:46:36;3.80;99.90
52275;DHT22;38228;50.940;4.024;2024-03-08T05:49:03;3.80;99.90
52275;DHT22;38228;50.940;4.024;2024-03-08T05:51:35;3.80;99.90
52275;DHT22;38228;50.940;4.024;2024-03-08T05:54:05;3.70;99.90
52275;DHT22;38228;50.940;4.024;2024-03-08T05:56:32;3.80;99.90
52275;DHT22;38228;50.940;4.024;2024-03-08T05:58:57;3.80;99.90
52275;DHT22;38228;50.940;4.024;2024-03-08T06:01:26;3.90;99.90
52275;DHT22;38228;50.940;4.024;2024-03-08T06:03:55;3.90;99.90
52275;DHT22;38228;50.940;4.024;2024-03-08T06:06:25;3.80;99.90
52275;DHT22;38228;50.940;4.024;2024-03-08T06:08:52;3.80;99.90
52275;DHT22;38228;50.940;4.024;2024-03-08T06:11:19;3.70;99.90
52275;DHT22;38228;50.940;4.024;2024-03-08T06:13:49;3.60;99.90
52275;DHT22;38228;50.940;4.024;2024-03-08T06:16:15;3.60;99.90
52275;DHT22;38228;50.940;4.024;2024-03-08T06:18:41;3.50;99.90
52275;DHT22;38228;50.940;4.024;2024-03-08T06:21:07;3.50;99.90
52275;DHT22;38228;50.940;4.024;2024-03-08T06:23:35;3.50;99.90
52275;DHT22;38228;50.940;4.024;2024-03-08T06:26:12;3.50;99.90
52275;DHT22;38228;50.940;4.024;2024-03-08T06:28:38;3.50;99.90
52275;DHT22;38228;50.940;4.024;2024-03-08T06:31:04;3.50;99.90
52275;DHT22;38228;50.940;4.024;2024-03-08T06:33:30;3.50;99.90
52275;DHT22;38228;50.940;4.024;2024-03-08T06:35:58;3.60;99.90
52275;DHT22;38228;50.940;4.024;2024-03-08T06:38:24;3.60;99.90
52275;DHT22;38228;50.940;4.024;2024-03-08T06:40:50;3.60;99.90
52275;DHT22;38228;50.940;4.024;2024-03-08T06:43:17;3.70;99.90
52275;DHT22;38228;50.940;4.024;2024-03-08T06:45:47;3.60;99.90
52275;DHT22;38228;50.940;4.024;2024-03-08T06:48:18;3.60;99.90
52275;DHT22;38228;50.940;4.024;2024-03-08T06:50:45;3.50;99.90
52275;DHT22;38228;50.940;4.024;2024-03-08T06:53:11;3.60;99.90
52275;DHT22;38228;50.940;4.024;2024-03-08T06:55:37;3.50;99.90
52275;DHT22;38228;50.940;4.024;2024-03-08T06:58:03;3.60;99.90
52275;DHT22;38228;50.940;4.024;2024-03-08T07:00:29;3.60;99.90
52275;DHT22;38228;50.940;4.024;2024-03-08T07:02:56;3.60;99.90
52275;DHT22;38228;50.940;4.024;2024-03-08T07:05:26;3.60;99.90
52275;DHT22;38228;50.940;4.024;2024-03-08T07:07:52;3.70;99.90
52275;DHT22;38228;50.940;4.024;2024-03-08T07:10:23;3.70;99.90
52275;DHT22;38228;50.940;4.024;2024-03-08T07:12:52;3.70;99.90
52275;DHT22;38228;50.940;4.024;2024-03-08T07:15:24;3.90;99.90
52275;DHT22;38228;50.940;4.024;2024-03-08T07:17:49;3.90;99.90
52275;DHT22;38228;50.940;4.024;2024-03-08T07:20:18;3.80;99.90
52275;DHT22;38228;50.940;4.024;2024-03-08T07:22:47;3.80;99.90
52275;DHT22;38228;50.940;4.024;2024-03-08T07:25:14;3.80;99.90
52275;DHT22;38228;50.940;4.024;2024-03-08T07:27:55;3.90;99.90
52275;DHT22;38228;50.940;4.024;2024-03-08T07:30:23;4.00;99.90
52275;DHT22;38228;50.940;4.024;2024-03-08T07:33:07;4.10;99.90
52275;DHT22;38228;50.940;4.024;2024-03-08T07:35:33;4.20;99.90
52275;DHT22;38228;50.940;4.024;2024-03-08T07:38:04;4.30;99.90
52275;DHT22;38228;50.940;4.024;2024-03-08T07:40:31;4.30;99.90
52275;DHT22;38228;50.940;4.024;2024-03-08T07:42:59;4.50;99.90
52275;DHT22;38228;50.940;4.024;2024-03-08T07:45:25;4.70;99.90
52275;DHT22;38228;50.940;4.024;2024-03-08T07:47:51;4.70;99.90
52275;DHT22;38228;50.940;4.024;2024-03-08T07:50:16;4.70;99.90
52275;DHT22;38228;50.940;4.024;2024-03-08T07:52:42;4.70;99.90
52275;DHT22;38228;50.940;4.024;2024-03-08T07:55:09;4.60;99.90
52275;DHT22;38228;50.940;4.024;2024-03-08T07:57:35;4.60;99.90
52275;DHT22;38228;50.940;4.024;2024-03-08T08:00:07;4.70;99.90
52275;DHT22;38228;50.940;4.024;2024-03-08T08:02:34;4.90;99.90
52275;DHT22;38228;50.940;4.024;2024-03-08T08:05:01;5.10;99.90
52275;DHT22;38228;50.940;4.024;2024-03-08T08:07:26;5.10;99.90
52275;DHT22;38228;50.940;4.024;2024-03-08T08:09:53;5.20;99.90
52275;DHT22;38228;50.940;4.024;2024-03-08T08:12:18;5.10;99.90
52275;DHT22;38228;50.940;4.024;2024-03-08T08:14:44;5.20;99.90
52275;DHT22;38228;50.940;4.024;2024-03-08T08:17:10;5.30;99.90
52275;DHT22;38228;50.940;4.024;2024-03-08T08:19:37;5.30;99.90
52275;DHT22;38228;50.940;4.024;2024-03-08T08:22:04;5.40;99.90
52275;DHT22;38228;50.940;4.024;2024-03-08T08:24:30;5.40;99.90
52275;DHT22;38228;50.940;4.024;2024-03-08T08:26:56;5.40;99.90
52275;DHT22;38228;50.940;4.024;2024-03-08T08:29:21;5.30;99.90
52275;DHT22;38228;50.940;4.024;2024-03-08T08:31:48;5.30;99.90
52275;DHT22;38228;50.940;4.024;2024-03-08T08:34:16;5.30;99.90
52275;DHT22;38228;50.940;4.024;2024-03-08T08:36:44;5.50;99.90
52275;DHT22;38228;50.940;4.024;2024-03-08T08:39:10;5.50;99.90
52275;DHT22;38228;50.940;4.024;2024-03-08T08:41:42;5.50;99.90
52275;DHT22;38228;50.940;4.024;2024-03-08T08:44:08;5.60;99.90
52275;DHT22;38228;50.940;4.024;2024-03-08T08:46:38;5.70;99.90
52275;DHT22;38228;50.940;4.024;2024-03-08T08:49:04;5.90;99.90
52275;DHT22;38228;50.940;4.024;2024-03-08T08:51:31;5.90;99.90
52275;DHT22;38228;50.940;4.024;2024-03-08T08:53:59;5.80;99.90
52275;DHT22;38228;50.940;4.024;2024-03-08T08:56:24;5.90;99.90
52275;DHT22;38228;50.940;4.024;2024-03-08T08:58:51;6.10;99.90
52275;DHT22;38228;50.940;4.024;2024-03-08T09:01:21;6.10;99.90
52275;DHT22;38228;50.940;4.024;2024-03-08T09:03:46;6.40;99.90
52275;DHT22;38228;50.940;4.024;2024-03-08T09:06:12;6.30;99.90
52275;DHT22;38228;50.940;4.024;2024-03-08T09:08:42;6.30;99.90
52275;DHT22;38228;50.940;4.024;2024-03-08T09:11:09;6.30;99.90
52275;DHT22;38228;50.940;4.024;2024-03-08T09:13:35;6.30;99.90
52275;DHT22;38228;50.940;4.024;2024-03-08T09:16:02;6.50;99.90
52275;DHT22;38228;50.940;4.024;2024-03-08T09:18:30;6.60;99.90
52275;DHT22;38228;50.940;4.024;2024-03-08T09:21:00;6.80;99.90
52275;DHT22;38228;50.940;4.024;2024-03-08T09:23:26;6.90;99.90
52275;DHT22;38228;50.940;4.024;2024-03-08T09:25:56;7.00;99.90
52275;DHT22;38228;50.940;4.024;2024-03-08T09:28:23;7.10;99.90
52275;DHT22;38228;50.940;4.024;2024-03-08T09:30:49;7.30;99.90
52275;DHT22;38228;50.940;4.024;2024-03-08T09:33:14;7.40;99.90
52275;DHT22;38228;50.940;4.024;2024-03-08T09:35:45;7.40;99.90
52275;DHT22;38228;50.940;4.024;2024-03-08T09:38:12;7.40;99.90
52275;DHT22;38228;50.940;4.024;2024-03-08T09:40:41;7.50;99.90
52275;DHT22;38228;50.940;4.024;2024-03-08T09:43:06;7.60;99.90
52275;DHT22;38228;50.940;4.024;2024-03-08T09:45:36;7.70;99.90
52275;DHT22;38228;50.940;4.024;2024-03-08T09:48:10;7.70;99.90
52275;DHT22;38228;50.940;4.024;2024-03-08T09:50:42;7.70;99.90
52275;DHT22;38228;50.940;4.024;2024-03-08T09:53:08;7.90;99.90
52275;DHT22;38228;50.940;4.024;2024-03-08T09:55:40;7.90;99.90
52275;DHT22;38228;50.940;4.024;2024-03-08T09:58:11;7.90;99.90
52275;DHT22;38228;50.940;4.024;2024-03-08T10:01:02;8.00;99.90
52275;DHT22;38228;50.940;4.024;2024-03-08T10:03:30;8.20;99.90
52275;DHT22;38228;50.940;4.024;2024-03-08T10:05:57;8.30;99.90
52275;DHT22;38228;50.940;4.024;2024-03-08T10:08:29;8.50;99.90
52275;DHT22;38228;50.940;4.024;2024-03-08T10:10:56;8.50;99.90
52275;DHT22;38228;50.940;4.024;2024-03-08T10:13:25;8.50;99.90
52275;DHT22;38228;50.940;4.024;2024-03-08T10:15:52;8.50;99.90
52275;DHT22;38228;50.940;4.024;2024-03-08T10:18:18;8.50;99.90
52275;DHT22;38228;50.940;4.024;2024-03-08T10:20:44;8.60;99.90
52275;DHT22;38228;50.940;4.024;2024-03-08T10:23:10;8.60;99.90
52275;DHT22;38228;50.940;4.024;2024-03-08T10:25:36;8.90;99.90
52275;DHT22;38228;50.940;4.024;2024-03-08T10:28:05;9.10;99.90
52275;DHT22;38228;50.940;4.024;2024-03-08T10:30:34;9.30;99.90
52275;DHT22;38228;50.940;4.024;2024-03-08T10:33:00;9.60;99.90
52275;DHT22;38228;50.940;4.024;2024-03-08T10:35:26;9.70;99.90
52275;DHT22;38228;50.940;4.024;2024-03-08T10:37:52;9.50;99.90
52275;DHT22;38228;50.940;4.024;2024-03-08T10:40:26;9.50;99.90
52275;DHT22;38228;50.940;4.024;2024-03-08T10:42:56;9.30;99.90
52275;DHT22;38228;50.940;4.024;2024-03-08T10:45:35;9.30;99.90
52275;DHT22;38228;50.940;4.024;2024-03-08T10:50:53;9.60;99.90
52275;DHT22;38228;50.940;4.024;2024-03-08T10:53:19;9.50;99.90
52275;DHT22;38228;50.940;4.024;2024-03-08T10:55:50;9.70;99.90
52275;DHT22;38228;50.940;4.024;2024-03-08T10:58:22;9.60;99.90
52275;DHT22;38228;50.940;4.024;2024-03-08T11:00:48;9.70;99.90
52275;DHT22;38228;50.940;4.024;2024-03-08T11:03:45;9.90;99.90
52275;DHT22;38228;50.940;4.024;2024-03-08T11:06:23;10.30;99.90
52275;DHT22;38228;50.940;4.024;2024-03-08T11:08:54;10.30;99.90
52275;DHT22;38228;50.940;4.024;2024-03-08T11:11:32;10.40;99.90
52275;DHT22;38228;50.940;4.024;2024-03-08T11:14:00;10.50;99.90
52275;DHT22;38228;50.940;4.024;2024-03-08T11:21:30;10.30;99.90
52275;DHT22;38228;50.940;4.024;2024-03-08T11:24:13;10.30;99.90
52275;DHT22;38228;50.940;4.024;2024-03-08T11:26:40;10.30;99.90
52275;DHT22;38228;50.940;4.024;2024-03-08T11:34:41;10.40;99.90
52275;DHT22;38228;50.940;4.024;2024-03-08T11:37:16;10.40;99.90
52275;DHT22;38228;50.940;4.024;2024-03-08T11:39:51;10.50;99.90
52275;DHT22;38228;50.940;4.024;2024-03-08T11:42:18;10.60;99.90
52275;DHT22;38228;50.940;4.024;2024-03-08T11:44:45;10.70;99.90
52275;DHT22;38228;50.940;4.024;2024-03-08T11:47:11;10.70;99.90
52275;DHT22;38228;50.940;4.024;2024-03-08T11:49:40;11.00;99.90
52275;DHT22;38228;50.940;4.024;2024-03-08T11:52:14;11.10;99.90
52275;DHT22;38228;50.940;4.024;2024-03-08T11:55:00;11.10;99.90
52275;DHT22;38228;50.940;4.024;2024-03-08T11:57:26;11.10;99.90
52275;DHT22;38228;50.940;4.024;2024-03-08T11:59:55;11.10;99.90
52275;DHT22;38228;50.940;4.024;2024-03-08T12:02:22;11.20;99.90
52275;DHT22;38228;50.940;4.024;2024-03-08T12:04:59;11.30;99.90
52275;DHT22;38228;50.940;4.024;2024-03-08T12:07:26;11.30;99.90
52275;DHT22;38228;50.940;4.024;2024-03-08T12:10:18;11.30;99.90
52275;DHT22;38228;50.940;4.024;2024-03-08T12:13:03;11.30;99.90
52275;DHT22;38228;50.940;4.024;2024-03-08T12:15:29;11.50;99.90
52275;DHT22;38228;50.940;4.024;2024-03-08T12:17:58;11.70;99.90
52275;DHT22;38228;50.940;4.024;2024-03-08T12:20:27;11.80;99.90
52275;DHT22;38228;50.940;4.024;2024-03-08T12:22:56;11.80;99.90
52275;DHT22;38228;50.940;4.024;2024-03-08T12:25:25;11.70;99.90
52275;DHT22;38228;50.940;4.024;2024-03-08T12:27:52;11.80;99.90
52275;DHT22;38228;50.940;4.024;2024-03-08T12:30:22;11.80;99.90
52275;DHT22;38228;50.940;4.024;2024-03-08T12:32:56;11.80;99.90
52275;DHT22;38228;50.940;4.024;2024-03-08T12:35:27;11.70;99.90
52275;DHT22;38228;50.940;4.024;2024-03-08T12:37:55;11.60;99.90
52275;DHT22;38228;50.940;4.024;2024-03-08T12:40:29;11.60;99.90
52275;DHT22;38228;50.940;4.024;2024-03-08T12:43:00;11.50;99.90
52275;DHT22;38228;50.940;4.024;2024-03-08T12:45:27;11.50;99.90
52275;DHT22;38228;50.940;4.024;2024-03-08T12:47:53;11.60;99.90
52275;DHT22;38228;50.940;4.024;2024-03-08T12:50:23;11.70;99.90
52275;DHT22;38228;50.940;4.024;2024-03-08T12:52:50;11.60;99.90
52275;DHT22;38228;50.940;4.024;2024-03-08T12:55:16;11.70;99.90
52275;DHT22;38228;50.940;4.024;2024-03-08T12:57:44;11.70;99.90
52275;DHT22;38228;50.940;4.024;2024-03-08T13:00:11;11.80;99.90
52275;DHT22;38228;50.940;4.024;2024-03-08T13:02:45;12.00;99.90
52275;DHT22;38228;50.940;4.024;2024-03-08T13:05:10;12.10;99.90
52275;DHT22;38228;50.940;4.024;2024-03-08T13:07:42;12.20;99.90
52275;DHT22;38228;50.940;4.024;2024-03-08T13:10:13;12.20;99.90
52275;DHT22;38228;50.940;4.024;2024-03-08T13:12:42;12.20;99.90
52275;DHT22;38228;50.940;4.024;2024-03-08T13:15:09;12.30;99.90
52275;DHT22;38228;50.940;4.024;2024-03-08T13:17:40;12.40;99.90
52275;DHT22;38228;50.940;4.024;2024-03-08T13:20:08;12.50;99.90
52275;DHT22;38228;50.940;4.024;2024-03-08T13:22:35;12.50;99.90
52275;DHT22;38228;50.940;4.024;2024-03-08T13:25:00;12.40;99.90
52275;DHT22;38228;50.940;4.024;2024-03-08T13:27:28;12.40;99.90
52275;DHT22;38228;50.940;4.024;2024-03-08T13:29:53;12.40;99.90
52275;DHT22;38228;50.940;4.024;2024-03-08T13:32:19;12.30;99.90
52275;DHT22;38228;50.940;4.024;2024-03-08T13:34:46;12.40;99.90
52275;DHT22;38228;50.940;4.024;2024-03-08T13:37:19;12.70;99.90
52275;DHT22;38228;50.940;4.024;2024-03-08T13:39:45;12.70;99.90
52275;DHT22;38228;50.940;4.024;2024-03-08T13:42:14;12.80;99.90
52275;DHT22;38228;50.940;4.024;2024-03-08T13:44:48;12.80;99.90
52275;DHT22;38228;50.940;4.024;2024-03-08T13:47:17;12.70;99.90
52275;DHT22;38228;50.940;4.024;2024-03-08T13:49:43;12.50;99.90
52275;DHT22;38228;50.940;4.024;2024-03-08T13:52:10;12.40;99.90
52275;DHT22;38228;50.940;4.024;2024-03-08T13:54:36;12.50;99.90
52275;DHT22;38228;50.940;4.024;2024-03-08T13:57:02;12.60;99.90
52275;DHT22;38228;50.940;4.024;2024-03-08T13:59:33;12.70;99.90
52275;DHT22;38228;50.940;4.024;2024-03-08T14:02:04;13.00;99.90
52275;DHT22;38228;50.940;4.024;2024-03-08T14:04:30;13.20;99.90
52275;DHT22;38228;50.940;4.024;2024-03-08T14:06:56;13.40;99.90
52275;DHT22;38228;50.940;4.024;2024-03-08T14:09:29;13.50;99.90
52275;DHT22;38228;50.940;4.024;2024-03-08T14:11:56;13.60;99.90
52275;DHT22;38228;50.940;4.024;2024-03-08T14:14:22;13.60;99.90
52275;DHT22;38228;50.940;4.024;2024-03-08T14:16:49;13.60;99.90
52275;DHT22;38228;50.940;4.024;2024-03-08T14:19:19;13.80;99.90
52275;DHT22;38228;50.940;4.024;2024-03-08T14:21:44;14.20;99.90
52275;DHT22;38228;50.940;4.024;2024-03-08T14:24:10;14.30;99.90
52275;DHT22;38228;50.940;4.024;2024-03-08T14:26:36;14.20;99.90
52275;DHT22;38228;50.940;4.024;2024-03-08T14:29:04;14.30;99.90
52275;DHT22;38228;50.940;4.024;2024-03-08T14:31:31;14.30;99.90
52275;DHT22;38228;50.940;4.024;2024-03-08T14:33:56;14.40;99.90
52275;DHT22;38228;50.940;4.024;2024-03-08T14:36:24;14.30;99.90
52275;DHT22;38228;50.940;4.024;2024-03-08T14:38:52;14.40;99.90
52275;DHT22;38228;50.940;4.024;2024-03-08T14:41:20;14.40;99.90
52275;DHT22;38228;50.940;4.024;2024-03-08T14:43:47;14.30;99.90
52275;DHT22;38228;50.940;4.024;2024-03-08T14:46:16;14.30;99.90
52275;DHT22;38228;50.940;4.024;2024-03-08T14:48:49;14.60;99.90
52275;DHT22;38228;50.940;4.024;2024-03-08T14:51:18;14.80;99.90
52275;DHT22;38228;50.940;4.024;2024-03-08T14:53:47;15.20;99.90
52275;DHT22;38228;50.940;4.024;2024-03-08T14:56:12;15.50;99.90
52275;DHT22;38228;50.940;4.024;2024-03-08T14:58:45;15.70;99.90
52275;DHT22;38228;50.940;4.024;2024-03-08T15:01:12;15.60;99.90
52275;DHT22;38228;50.940;4.024;2024-03-08T15:03:44;15.30;99.90
52275;DHT22;38228;50.940;4.024;2024-03-08T15:06:09;15.20;99.90
52275;DHT22;38228;50.940;4.024;2024-03-08T15:08:36;15.20;99.90
52275;DHT22;38228;50.940;4.024;2024-03-08T15:11:03;15.60;99.90
52275;DHT22;38228;50.940;4.024;2024-03-08T15:13:29;15.70;99.90
52275;DHT22;38228;50.940;4.024;2024-03-08T15:16:10;15.70;99.90
52275;DHT22;38228;50.940;4.024;2024-03-08T15:18:42;15.60;99.90
52275;DHT22;38228;50.940;4.024;2024-03-08T15:21:13;15.80;99.90
52275;DHT22;38228;50.940;4.024;2024-03-08T15:23:43;15.90;99.90
52275;DHT22;38228;50.940;4.024;2024-03-08T15:26:13;15.90;99.90
52275;DHT22;38228;50.940;4.024;2024-03-08T15:28:39;15.60;99.90
52275;DHT22;38228;50.940;4.024;2024-03-08T15:31:05;15.60;99.90
52275;DHT22;38228;50.940;4.024;2024-03-08T15:33:35;15.80;99.90
52275;DHT22;38228;50.940;4.024;2024-03-08T15:36:08;16.10;99.90
52275;DHT22;38228;50.940;4.024;2024-03-08T15:38:36;16.30;99.90
52275;DHT22;38228;50.940;4.024;2024-03-08T15:41:06;16.40;99.90
52275;DHT22;38228;50.940;4.024;2024-03-08T15:43:35;16.20;99.90
52275;DHT22;38228;50.940;4.024;2024-03-08T15:46:03;15.60;99.90
52275;DHT22;38228;50.940;4.024;2024-03-08T15:48:34;14.80;99.90
52275;DHT22;38228;50.940;4.024;2024-03-08T15:51:03;14.30;99.90
52275;DHT22;38228;50.940;4.024;2024-03-08T15:53:35;14.10;99.90
52275;DHT22;38228;50.940;4.024;2024-03-08T15:56:02;13.90;99.90
52275;DHT22;38228;50.940;4.024;2024-03-08T15:58:28;13.70;99.90
52275;DHT22;38228;50.940;4.024;2024-03-08T16:00:56;13.60;99.90